Time;durP1;ratioP1;P1;durP2;ratioP2;P2;SDS_P1;SDS_P2;PMS_P1;PMS_P2;Temp;Humidity;BMP_temperature;BMP_pressure;BME280_temperature;BME280_humidity;BME280_pressure;Samples;Min_cycle;Max_cycle;Signal;HPM_P1;HPM_P2
2021/12/27 00:00:48;;;;;;;59.47;29.05;;;;;;;3.05;100.00;100136.97;5115364;28;20027;-65
2021/12/27 00:03:14;;;;;;;55.10;28.20;;;;;;;3.07;100.00;100128.38;5115354;28;20039;-64
2021/12/27 00:05:39;;;;;;;59.47;29.25;;;;;;;3.05;100.00;100132.66;5115519;28;20054;-63
2021/12/27 00:08:04;;;;;;;54.92;27.58;;;;;;;3.12;100.00;100142.16;5115565;28;20032;-66
2021/12/27 00:10:30;;;;;;;57.78;29.00;;;;;;;3.05;100.00;100132.66;5115399;28;20114;-64
2021/12/27 00:12:57;;;;;;;54.45;28.20;;;;;;;3.12;100.00;100133.53;5115340;28;20047;-63
2021/12/27 00:15:24;;;;;;;52.53;27.13;;;;;;;3.09;100.00;100137.00;5115117;28;20438;-64
2021/12/27 00:17:50;;;;;;;52.35;27.30;;;;;;;3.15;100.00;100138.72;5115214;28;20430;-63
2021/12/27 00:20:18;;;;;;;54.25;28.70;;;;;;;3.13;100.00;100138.72;5115292;28;20036;-64
2021/12/27 00:22:45;;;;;;;55.38;27.67;;;;;;;3.13;100.00;100130.97;5115173;28;20027;-65
2021/12/27 00:25:11;;;;;;;52.40;27.88;;;;;;;3.15;100.00;100131.84;5115029;28;20039;-63
2021/12/27 00:27:36;;;;;;;51.97;27.40;;;;;;;3.07;100.00;100112.88;5114984;28;20036;-63
2021/12/27 00:30:03;;;;;;;53.05;28.40;;;;;;;3.18;100.00;100127.56;5115516;28;20043;-67
2021/12/27 00:32:29;;;;;;;50.55;28.00;;;;;;;3.19;100.00;100129.28;5115446;28;20535;-66
2021/12/27 00:34:54;;;;;;;52.10;28.05;;;;;;;3.21;100.00;100124.97;5115267;28;20059;-63
2021/12/27 00:37:19;;;;;;;57.35;28.35;;;;;;;3.21;100.00;100118.09;5114913;28;20366;-67
2021/12/27 00:39:45;;;;;;;53.22;28.50;;;;;;;3.22;100.00;100118.97;5115130;28;20024;-63
2021/12/27 00:42:10;;;;;;;50.30;27.20;;;;;;;3.20;100.00;100110.31;5114986;28;20450;-63
2021/12/27 00:44:36;;;;;;;49.00;26.80;;;;;;;3.22;100.00;100104.31;5114981;28;20025;-62
2021/12/27 00:47:01;;;;;;;54.78;28.92;;;;;;;3.23;100.00;100100.88;5115278;28;20031;-64
2021/12/27 00:49:27;;;;;;;52.67;28.13;;;;;;;3.26;100.00;100100.03;5115647;28;20039;-63
2021/12/27 00:51:52;;;;;;;50.05;27.48;;;;;;;3.27;100.00;100094.88;5119118;28;20042;-64
2021/12/27 00:54:18;;;;;;;51.80;28.13;;;;;;;3.23;100.00;100076.75;5118880;28;20414;-66
2021/12/27 00:56:43;;;;;;;55.50;28.85;;;;;;;3.29;100.00;100084.53;5118943;28;20110;-63
2021/12/27 00:59:09;;;;;;;50.45;26.88;;;;;;;3.34;100.00;100090.56;5119093;28;20036;-63
2021/12/27 01:01:34;;;;;;;56.50;28.30;;;;;;;3.28;100.00;100075.91;5118978;28;20035;-63
2021/12/27 01:04:00;;;;;;;53.25;27.95;;;;;;;3.32;100.00;100084.50;5118887;28;20461;-62
2021/12/27 01:06:26;;;;;;;51.20;27.33;;;;;;;3.28;100.00;100075.03;5118858;28;20031;-64
2021/12/27 01:08:53;;;;;;;53.97;27.70;;;;;;;3.32;100.00;100079.34;5118939;28;20106;-65
2021/12/27 01:11:27;;;;;;;48.05;26.38;;;;;;;3.34;100.00;100085.38;5118477;28;20429;-65
2021/12/27 01:14:09;;;;;;;51.38;28.17;;;;;;;3.37;100.00;100088.00;5118538;28;20077;-63
2021/12/27 01:16:34;;;;;;;53.78;27.98;;;;;;;3.36;100.00;100076.78;5118691;28;20035;-63
2021/12/27 01:18:59;;;;;;;51.83;27.42;;;;;;;3.36;100.00;100075.91;5118551;28;20043;-64
2021/12/27 01:21:25;;;;;;;51.28;27.65;;;;;;;3.40;100.00;100081.09;5118400;28;20031;-64
2021/12/27 01:23:52;;;;;;;50.75;26.85;;;;;;;3.41;100.00;100084.56;5118462;28;20040;-65
2021/12/27 01:26:17;;;;;;;49.85;27.27;;;;;;;3.43;100.00;100086.31;5118410;28;20065;-64
2021/12/27 01:28:43;;;;;;;49.40;27.30;;;;;;;3.40;100.00;100070.78;5100197;28;20498;-64
2021/12/27 01:31:09;;;;;;;49.72;26.65;;;;;;;3.49;100.00;100072.50;5118590;28;20085;-65
2021/12/27 01:33:35;;;;;;;51.10;26.95;;;;;;;3.45;100.00;100066.47;5118291;28;20350;-65
2021/12/27 01:36:01;;;;;;;48.15;26.67;;;;;;;3.46;100.00;100075.09;5118033;28;20040;-65
2021/12/27 01:38:27;;;;;;;49.90;27.10;;;;;;;3.53;100.00;100071.66;5118132;28;20032;-64
2021/12/27 01:40:55;;;;;;;51.10;27.05;;;;;;;3.50;100.00;100063.88;5118414;28;20035;-63
2021/12/27 01:43:25;;;;;;;48.88;25.65;;;;;;;3.49;100.00;100064.75;5118393;28;20026;-65
2021/12/27 01:46:02;;;;;;;49.88;26.42;;;;;;;3.53;100.00;100073.38;5118197;28;20114;-65
2021/12/27 01:48:32;;;;;;;51.33;26.70;;;;;;;3.53;100.00;100070.78;5117854;28;20036;-63
2021/12/27 01:50:59;;;;;;;51.78;26.92;;;;;;;3.52;100.00;100074.25;5117777;28;20024;-64
2021/12/27 01:53:27;;;;;;;54.60;27.92;;;;;;;3.52;100.00;100058.72;5117705;28;20188;-64
2021/12/27 01:55:54;;;;;;;49.78;27.55;;;;;;;3.49;100.00;100056.97;5117940;28;20043;-67
2021/12/27 01:58:20;;;;;;;51.35;27.40;;;;;;;3.57;100.00;100064.78;5118101;28;20059;-66
2021/12/27 02:00:48;;;;;;;51.05;27.50;;;;;;;3.53;100.00;100057.84;5117510;28;20047;-63
2021/12/27 02:03:18;;;;;;;54.80;28.42;;;;;;;3.58;100.00;100061.34;5117317;28;20031;-63
2021/12/27 02:05:44;;;;;;;51.28;27.67;;;;;;;3.56;100.00;100052.69;5117848;28;20027;-66
2021/12/27 02:08:10;;;;;;;50.15;27.20;;;;;;;3.59;100.00;100053.56;5117659;28;20027;-66
2021/12/27 02:10:36;;;;;;;55.13;27.65;;;;;;;3.61;100.00;100057.03;5117280;28;20065;-63
2021/12/27 02:13:02;;;;;;;51.58;27.23;;;;;;;3.62;100.00;100058.75;5117558;28;20051;-66
2021/12/27 02:15:28;;;;;;;52.88;27.50;;;;;;;3.64;100.00;100057.00;5117351;28;20427;-64
2021/12/27 02:17:54;;;;;;;53.58;28.02;;;;;;;3.66;100.00;100054.44;5117601;28;20035;-64
2021/12/27 02:20:27;;;;;;;53.00;28.05;;;;;;;3.62;100.00;100048.41;5117330;28;20110;-66
2021/12/27 02:22:55;;;;;;;53.13;28.63;;;;;;;3.65;100.00;100058.75;5117592;28;20028;-64
2021/12/27 02:25:21;;;;;;;52.97;27.02;;;;;;;3.62;100.00;100048.41;5117282;28;20035;-64
2021/12/27 02:27:47;;;;;;;49.78;26.95;;;;;;;3.68;100.00;100057.88;5116946;28;20028;-64
2021/12/27 02:30:17;;;;;;;52.13;28.40;;;;;;;3.66;100.00;100060.47;5116858;28;20043;-65
2021/12/27 02:32:56;;;;;;;51.85;27.40;;;;;;;3.66;100.00;100047.53;5117251;28;20031;-65
2021/12/27 02:35:23;;;;;;;50.95;27.63;;;;;;;3.68;100.00;100048.41;5117231;28;20053;-64
2021/12/27 02:37:48;;;;;;;52.42;27.67;;;;;;;3.70;100.00;100056.16;5117569;28;20054;-65
2021/12/27 02:40:14;;;;;;;56.58;28.15;;;;;;;3.71;100.00;100055.31;5116988;28;20430;-64
2021/12/27 02:43:01;;;;;;;55.42;28.85;;;;;;;3.72;100.00;100062.22;5116980;28;20031;-65
2021/12/27 02:45:29;;;;;;;53.53;27.27;;;;;;;3.71;100.00;100063.94;5117054;28;20027;-67
2021/12/27 02:47:55;;;;;;;53.55;27.25;;;;;;;3.71;100.00;100058.75;5116878;28;20031;-64
2021/12/27 02:50:23;;;;;;;52.55;27.65;;;;;;;3.63;100.00;100039.78;5117064;28;20339;-62
2021/12/27 02:52:48;;;;;;;53.70;27.88;;;;;;;3.73;100.00;100040.66;5116675;28;20399;-64
2021/12/27 02:55:15;;;;;;;49.58;25.73;;;;;;;3.76;100.00;100040.66;5116758;28;20031;-64
2021/12/27 02:57:45;;;;;;;52.92;27.67;;;;;;;3.77;100.00;100027.72;5116794;28;20035;-64
2021/12/27 03:00:19;;;;;;;52.28;27.63;;;;;;;3.76;100.00;100022.56;5116660;28;20438;-63
2021/12/27 03:02:46;;;;;;;54.65;27.15;;;;;;;3.79;100.00;100038.09;5116797;28;20312;-65
2021/12/27 03:05:16;;;;;;;52.30;26.98;;;;;;;3.78;100.00;100037.22;5116697;28;20027;-64
2021/12/27 03:07:42;;;;;;;56.65;28.80;;;;;;;3.74;100.00;100032.91;5116298;28;20039;-64
2021/12/27 03:10:10;;;;;;;52.88;27.50;;;;;;;3.81;100.00;100033.75;5116317;28;20039;-66
2021/12/27 03:12:38;;;;;;;50.92;26.95;;;;;;;3.77;100.00;100025.16;5115895;28;20079;-65
2021/12/27 03:15:07;;;;;;;51.03;26.75;;;;;;;3.77;100.00;100014.78;5116080;28;20032;-65
2021/12/27 03:17:33;;;;;;;55.25;28.27;;;;;;;3.81;100.00;100013.03;5116679;28;20396;-64
2021/12/27 03:19:58;;;;;;;51.53;27.45;;;;;;;3.81;100.00;100002.69;5098530;28;20035;-63
2021/12/27 03:22:23;;;;;;;54.33;27.88;;;;;;;3.85;100.00;100014.78;5116054;28;20038;-63
2021/12/27 03:24:48;;;;;;;52.97;27.17;;;;;;;3.84;100.00;100013.91;5116227;28;20090;-64
2021/12/27 03:27:14;;;;;;;51.05;26.70;;;;;;;3.84;100.00;100013.06;5116112;28;20024;-65
2021/12/27 03:29:39;;;;;;;54.67;28.20;;;;;;;3.87;100.00;100018.22;5116316;28;20399;-64
2021/12/27 03:32:05;;;;;;;54.03;26.75;;;;;;;3.77;100.00;100001.84;5115980;28;20092;-66
2021/12/27 03:34:33;;;;;;;54.53;27.98;;;;;;;3.91;100.00;100008.75;5116212;28;20031;-63
2021/12/27 03:36:58;;;;;;;49.08;26.30;;;;;;;3.92;100.00;100013.94;5115917;28;20069;-64
2021/12/27 03:39:23;;;;;;;51.83;27.15;;;;;;;3.94;100.00;100024.28;5116398;28;20043;-64
2021/12/27 03:41:49;;;;;;;49.85;25.80;;;;;;;3.79;100.00;99989.78;5115846;28;20386;-66
2021/12/27 03:44:14;;;;;;;52.25;27.58;;;;;;;3.93;100.00;100009.63;5115878;28;20023;-64
2021/12/27 03:46:39;;;;;;;51.28;27.75;;;;;;;3.97;100.00;100008.75;5115848;28;20359;-64
2021/12/27 03:49:04;;;;;;;51.75;26.77;;;;;;;3.96;100.00;100004.44;5115927;28;20123;-63
2021/12/27 03:51:30;;;;;;;50.75;27.35;;;;;;;3.96;100.00;99994.97;5115473;28;20043;-64
2021/12/27 03:53:55;;;;;;;49.55;26.95;;;;;;;3.98;100.00;99995.81;5115644;28;20038;-65
2021/12/27 03:56:23;;;;;;;48.53;26.45;;;;;;;3.98;100.00;99995.81;5115624;28;20414;-65
2021/12/27 03:58:59;;;;;;;53.72;27.88;;;;;;;3.99;100.00;99994.06;5115531;28;20031;-64
2021/12/27 04:01:26;;;;;;;53.30;26.95;;;;;;;4.02;100.00;99992.34;5116092;28;20027;-62
2021/12/27 04:03:55;;;;;;;53.85;27.42;;;;;;;3.99;100.00;99973.34;5115298;28;20023;-68
2021/12/27 04:06:22;;;;;;;53.72;27.48;;;;;;;4.02;100.00;99979.41;5115334;28;20350;-66
2021/12/27 04:08:48;;;;;;;54.78;27.63;;;;;;;4.02;100.00;99979.41;5115442;28;20024;-65
2021/12/27 04:11:13;;;;;;;54.05;26.80;;;;;;;4.03;100.00;99980.25;5114961;28;20030;-64
2021/12/27 04:13:39;;;;;;;53.65;27.80;;;;;;;4.00;100.00;99970.78;5115275;28;20095;-64
2021/12/27 04:16:05;;;;;;;53.92;27.60;;;;;;;4.03;100.00;99972.50;5115202;28;20046;-65
2021/12/27 04:18:30;;;;;;;51.45;27.45;;;;;;;4.03;100.00;99967.31;5115261;28;20024;-63
2021/12/27 04:20:55;;;;;;;52.75;27.17;;;;;;;4.06;100.00;99975.09;5114934;28;20027;-63
2021/12/27 04:23:21;;;;;;;57.55;28.13;;;;;;;4.07;100.00;99974.22;5115311;28;20049;-63
2021/12/27 04:25:46;;;;;;;54.83;27.60;;;;;;;4.06;100.00;99964.72;5115113;28;20446;-63
2021/12/27 04:28:13;;;;;;;52.25;28.08;;;;;;;4.08;100.00;99966.47;5115196;28;20030;-64
2021/12/27 04:30:39;;;;;;;51.72;27.98;;;;;;;4.08;100.00;99960.44;5115522;28;20338;-64
2021/12/27 04:33:05;;;;;;;52.17;26.33;;;;;;;4.07;100.00;99946.63;5115000;28;20024;-63
2021/12/27 04:35:31;;;;;;;56.42;28.27;;;;;;;4.12;100.00;99955.25;5115319;28;20027;-64
2021/12/27 04:37:57;;;;;;;56.47;27.42;;;;;;;4.11;100.00;99955.25;5115066;28;20031;-64
2021/12/27 04:40:24;;;;;;;52.72;26.17;;;;;;;4.13;100.00;99954.38;5115110;28;20462;-65
2021/12/27 04:42:54;;;;;;;51.70;25.45;;;;;;;4.14;100.00;99955.25;5115110;28;20023;-64
2021/12/27 04:45:20;;;;;;;48.25;24.95;;;;;;;4.15;100.00;99949.22;5114612;28;20451;-63
2021/12/27 04:47:45;;;;;;;50.97;27.27;;;;;;;4.14;100.00;99939.72;5114417;28;20096;-64
2021/12/27 04:50:10;;;;;;;54.95;26.80;;;;;;;4.16;100.00;99949.16;5115073;28;20103;-63
2021/12/27 04:52:36;;;;;;;54.58;26.30;;;;;;;4.18;100.00;99946.59;5114928;28;20487;-67
2021/12/27 04:55:02;;;;;;;52.10;26.63;;;;;;;4.16;100.00;99940.53;5115311;28;20057;-65
2021/12/27 04:57:28;;;;;;;51.78;26.67;;;;;;;4.20;100.00;99944.84;5115461;28;20096;-66
2021/12/27 04:59:54;;;;;;;55.72;27.15;;;;;;;4.20;100.00;99950.91;5115157;28;20110;-65
2021/12/27 05:02:19;;;;;;;54.08;27.27;;;;;;;4.20;100.00;99943.13;5114435;28;20039;-64
2021/12/27 05:04:44;;;;;;;49.97;26.30;;;;;;;4.20;100.00;99937.09;5114848;28;20118;-65
2021/12/27 05:07:10;;;;;;;52.28;26.85;;;;;;;4.21;100.00;99941.41;5114916;28;20038;-64
2021/12/27 05:09:35;;;;;;;49.92;26.13;;;;;;;4.27;100.00;99945.72;5115040;28;20060;-65
2021/12/27 05:12:00;;;;;;;52.38;26.73;;;;;;;4.26;100.00;99947.44;5115169;28;20052;-65
2021/12/27 05:14:25;;;;;;;48.35;24.95;;;;;;;4.22;100.00;99937.94;5115212;28;20145;-65
2021/12/27 05:16:51;;;;;;;50.17;25.63;;;;;;;4.27;100.00;99945.72;5114652;28;20351;-64
2021/12/27 05:19:16;;;;;;;50.80;25.10;;;;;;;4.28;100.00;99943.13;5114818;28;20032;-66
2021/12/27 05:21:41;;;;;;;49.95;26.55;;;;;;;4.33;100.00;99940.53;5114718;28;20066;-64
2021/12/27 05:24:07;;;;;;;51.65;26.33;;;;;;;4.33;100.00;99949.13;5114693;28;20430;-65
2021/12/27 05:26:33;;;;;;;52.70;26.17;;;;;;;4.34;100.00;99948.28;5114953;28;20096;-63
2021/12/27 05:28:58;;;;;;;49.90;25.58;;;;;;;4.34;100.00;99939.63;5114593;28;20027;-67
2021/12/27 05:31:24;;;;;;;49.78;26.08;;;;;;;4.37;100.00;99937.91;5114628;28;20024;-65
2021/12/27 05:33:49;;;;;;;48.40;25.63;;;;;;;4.38;100.00;99929.28;5114754;28;20435;-67
2021/12/27 05:36:14;;;;;;;55.25;26.83;;;;;;;4.40;100.00;99924.94;5115016;28;20031;-63
2021/12/27 05:38:40;;;;;;;46.90;25.65;;;;;;;4.41;100.00;99925.81;5118247;28;20037;-66
2021/12/27 05:41:06;;;;;;;51.33;25.40;;;;;;;4.40;100.00;99921.50;5118435;28;20039;-65
2021/12/27 05:43:31;;;;;;;53.58;27.13;;;;;;;4.43;100.00;99919.78;5118321;28;20119;-64
2021/12/27 05:45:57;;;;;;;50.47;25.35;;;;;;;4.42;100.00;99925.81;5118218;28;20028;-64
2021/12/27 05:48:22;;;;;;;46.58;25.60;;;;;;;4.45;100.00;99920.63;5118098;28;20031;-65
2021/12/27 05:50:47;;;;;;;48.58;26.08;;;;;;;4.42;100.00;99918.03;5117939;28;20031;-66
2021/12/27 05:53:13;;;;;;;50.85;25.95;;;;;;;4.48;100.00;99924.94;5117788;28;20024;-64
2021/12/27 05:55:38;;;;;;;50.42;25.83;;;;;;;4.48;100.00;99931.00;5100283;28;20027;-66
2021/12/27 05:58:04;;;;;;;47.25;24.63;;;;;;;4.49;100.00;99932.72;5117967;28;20106;-64
2021/12/27 06:00:30;;;;;;;47.45;24.80;;;;;;;4.52;100.00;99934.41;5118113;28;20084;-64
2021/12/27 06:02:55;;;;;;;50.22;24.77;;;;;;;4.52;100.00;99931.81;5117774;28;20050;-64
2021/12/27 06:05:22;;;;;;;45.72;24.50;;;;;;;4.59;100.00;99937.84;5117859;28;20043;-65
2021/12/27 06:07:48;;;;;;;44.97;25.23;;;;;;;4.60;100.00;99934.38;5117760;28;20412;-65
2021/12/27 06:10:13;;;;;;;50.35;25.90;;;;;;;4.53;100.00;99924.03;5117636;28;20039;-65
2021/12/27 06:12:40;;;;;;;49.53;25.30;;;;;;;4.57;100.00;99922.31;5117461;28;20051;-64
2021/12/27 06:15:06;;;;;;;49.75;26.13;;;;;;;4.59;100.00;99911.94;5117649;28;20028;-64
2021/12/27 06:17:32;;;;;;;49.28;24.77;;;;;;;4.59;100.00;99920.56;5117411;28;20067;-64
2021/12/27 06:19:58;;;;;;;48.95;25.35;;;;;;;4.62;100.00;99923.16;5117334;28;20027;-65
2021/12/27 06:22:24;;;;;;;47.47;25.00;;;;;;;4.63;100.00;99930.06;5117341;28;20529;-64
2021/12/27 06:24:50;;;;;;;51.20;24.92;;;;;;;4.62;100.00;99924.88;5117474;28;20110;-64
2021/12/27 06:27:15;;;;;;;48.28;24.27;;;;;;;4.71;100.00;99922.22;5117709;28;20070;-64
2021/12/27 06:29:40;;;;;;;52.92;25.15;;;;;;;4.73;100.00;99917.91;5117345;28;20495;-63
2021/12/27 06:32:06;;;;;;;46.83;23.80;;;;;;;4.78;100.00;99924.81;5117202;28;20427;-65
2021/12/27 06:34:31;;;;;;;50.47;24.92;;;;;;;4.72;100.00;99918.78;5117186;28;20101;-65
2021/12/27 06:36:56;;;;;;;45.90;23.67;;;;;;;4.77;100.00;99914.44;5117055;28;20019;-64
2021/12/27 06:39:22;;;;;;;50.90;24.50;;;;;;;4.79;100.00;99913.56;5117251;28;20096;-66
2021/12/27 06:41:47;;;;;;;49.88;24.15;;;;;;;4.79;100.00;99916.16;5116974;28;20032;-65
2021/12/27 06:44:12;;;;;;;50.25;24.65;;;;;;;4.79;100.00;99915.31;5117091;28;20031;-64
2021/12/27 06:46:38;;;;;;;46.63;24.88;;;;;;;4.77;100.00;99917.03;5116842;28;20331;-65
2021/12/27 06:49:03;;;;;;;47.65;24.33;;;;;;;4.76;100.00;99912.72;5116652;28;20020;-65
2021/12/27 06:51:29;;;;;;;51.47;24.58;;;;;;;4.75;100.00;99905.81;5116682;28;20349;-64
2021/12/27 06:53:55;;;;;;;48.83;24.10;;;;;;;4.77;100.00;99904.94;5116554;28;20039;-65
2021/12/27 06:56:21;;;;;;;50.40;25.33;;;;;;;4.71;100.00;99891.13;5116743;28;20054;-65
2021/12/27 06:58:46;;;;;;;50.47;24.88;;;;;;;4.78;100.00;99898.88;5116723;28;20110;-66
2021/12/27 07:01:11;;;;;;;50.42;24.67;;;;;;;4.77;100.00;99886.78;5116464;28;20031;-63
2021/12/27 07:03:36;;;;;;;47.42;24.52;;;;;;;4.75;100.00;99888.53;5116647;28;20058;-64
2021/12/27 07:06:02;;;;;;;50.13;25.17;;;;;;;4.83;100.00;99893.69;5116348;28;20497;-63
2021/12/27 07:08:28;;;;;;;50.05;24.40;;;;;;;4.82;100.00;99890.25;5116828;28;20330;-67
2021/12/27 07:10:53;;;;;;;54.30;25.60;;;;;;;4.85;100.00;99879.81;5116467;28;20080;-63
2021/12/27 07:13:19;;;;;;;52.38;24.73;;;;;;;4.84;100.00;99879.88;5116393;28;20087;-65
2021/12/27 07:15:45;;;;;;;51.75;24.70;;;;;;;4.83;100.00;99876.41;5116212;28;20042;-64
2021/12/27 07:18:11;;;;;;;53.53;24.40;;;;;;;4.83;100.00;99884.19;5116140;28;20027;-65
2021/12/27 07:20:37;;;;;;;52.92;24.75;;;;;;;4.81;100.00;99887.66;5116205;28;20039;-66
2021/12/27 07:23:04;;;;;;;47.67;25.23;;;;;;;4.77;100.00;99879.03;5116265;28;20392;-65
2021/12/27 07:25:30;;;;;;;53.90;24.92;;;;;;;4.78;100.00;99867.78;5116318;28;20031;-64
2021/12/27 07:27:55;;;;;;;49.28;23.83;;;;;;;4.75;100.00;99872.97;5116290;28;20140;-63
2021/12/27 07:30:20;;;;;;;50.70;24.77;;;;;;;4.72;100.00;99877.31;5116016;28;20354;-63
2021/12/27 07:32:46;;;;;;;49.70;24.40;;;;;;;4.64;100.00;99885.16;5115583;28;20027;-65
2021/12/27 07:35:11;;;;;;;51.00;24.60;;;;;;;4.60;100.00;99883.44;5116120;28;20035;-68
2021/12/27 07:37:37;;;;;;;51.63;24.85;;;;;;;4.55;100.00;99885.16;5115952;28;20072;-64
2021/12/27 07:40:03;;;;;;;53.40;24.33;;;;;;;4.52;100.00;99883.44;5115821;28;20366;-63
2021/12/27 07:42:29;;;;;;;55.17;25.00;;;;;;;4.51;100.00;99880.88;5115923;28;20054;-65
2021/12/27 07:44:54;;;;;;;54.08;24.27;;;;;;;4.48;100.00;99884.34;5115767;28;20422;-63
2021/12/27 07:47:19;;;;;;;55.38;25.02;;;;;;;4.48;100.00;99880.91;5116098;28;20111;-65
2021/12/27 07:49:45;;;;;;;48.00;24.88;;;;;;;4.48;100.00;99879.19;5116393;28;20342;-64
2021/12/27 07:52:10;;;;;;;49.90;24.98;;;;;;;4.51;100.00;99884.31;5115683;28;20366;-65
2021/12/27 07:54:35;;;;;;;49.25;24.05;;;;;;;4.54;100.00;99886.03;5115612;28;20085;-66
2021/12/27 07:57:01;;;;;;;49.75;24.90;;;;;;;4.55;100.00;99883.44;5115728;28;20034;-65
2021/12/27 07:59:27;;;;;;;51.67;25.15;;;;;;;4.52;100.00;99885.19;5115113;28;20435;-65
2021/12/27 08:01:52;;;;;;;49.30;24.05;;;;;;;4.44;100.00;99880.03;5115557;28;20049;-63
2021/12/27 08:04:18;;;;;;;48.10;23.52;;;;;;;4.48;100.00;99883.50;5115704;28;20114;-64
2021/12/27 08:06:43;;;;;;;50.92;23.45;;;;;;;4.45;100.00;99879.19;5115717;28;20039;-63
2021/12/27 08:09:09;;;;;;;48.67;22.90;;;;;;;4.35;100.00;99885.25;5115723;28;20038;-63
2021/12/27 08:11:34;;;;;;;52.53;24.33;;;;;;;4.36;100.00;99896.47;5115368;28;20087;-65
2021/12/27 08:13:59;;;;;;;48.95;22.85;;;;;;;4.28;100.00;99890.47;5115724;28;20398;-64
2021/12/27 08:16:25;;;;;;;47.17;23.17;;;;;;;4.27;100.00;99894.78;5115438;28;20039;-65
2021/12/27 08:18:51;;;;;;;48.97;23.80;;;;;;;4.27;100.00;99896.50;5115272;28;20028;-64
2021/12/27 08:21:17;;;;;;;47.05;23.05;;;;;;;4.27;100.00;99892.19;5115306;28;20046;-65
2021/12/27 08:23:42;;;;;;;48.20;24.08;;;;;;;4.34;100.00;99895.59;5115308;28;20039;-64
2021/12/27 08:26:08;;;;;;;49.28;23.08;;;;;;;4.35;100.00;99897.34;5115711;28;20027;-64
2021/12/27 08:28:33;;;;;;;47.05;23.30;;;;;;;4.41;100.00;99893.00;5115404;28;20020;-64
2021/12/27 08:30:58;;;;;;;51.88;24.98;;;;;;;4.46;100.00;99893.84;5115327;28;20442;-65
2021/12/27 08:33:23;;;;;;;53.83;25.27;;;;;;;4.55;100.00;99886.03;5115112;28;20433;-66
2021/12/27 08:35:49;;;;;;;49.65;23.83;;;;;;;4.60;100.00;99883.44;5115161;28;20100;-64
2021/12/27 08:38:16;;;;;;;51.55;24.95;;;;;;;4.64;100.00;99885.16;5115197;28;20038;-65
2021/12/27 08:40:42;;;;;;;48.13;24.67;;;;;;;4.65;100.00;99883.41;5115208;28;20039;-66
2021/12/27 08:43:07;;;;;;;44.17;23.08;;;;;;;4.60;100.00;99874.78;5115145;28;20035;-64
2021/12/27 08:45:32;;;;;;;44.10;23.45;;;;;;;4.65;100.00;99878.22;5115075;28;20028;-66
2021/12/27 08:47:58;;;;;;;40.55;22.42;;;;;;;4.64;100.00;99879.09;5114949;28;20344;-65
2021/12/27 08:50:23;;;;;;;48.13;23.58;;;;;;;4.61;100.00;99866.16;5115118;28;20028;-62
2021/12/27 08:52:50;;;;;;;42.10;22.05;;;;;;;4.56;100.00;99853.22;5115229;28;20081;-65
2021/12/27 08:55:16;;;;;;;40.45;22.08;;;;;;;4.55;100.00;99843.72;5115085;28;20034;-64
2021/12/27 08:57:41;;;;;;;43.67;22.40;;;;;;;4.59;100.00;99842.84;5115141;28;20032;-65
2021/12/27 09:00:09;;;;;;;42.55;22.48;;;;;;;4.60;100.00;99846.28;5115035;28;20081;-65
2021/12/27 09:02:35;;;;;;;42.17;21.92;;;;;;;4.63;100.00;99838.50;5115279;28;20071;-64
2021/12/27 09:05:00;;;;;;;42.58;22.33;;;;;;;4.58;100.00;99841.13;5114946;28;20032;-65
2021/12/27 09:07:26;;;;;;;39.63;21.30;;;;;;;4.67;100.00;99853.19;5114771;28;20031;-66
2021/12/27 09:09:51;;;;;;;40.33;21.60;;;;;;;4.66;100.00;99856.63;5114993;28;20035;-65
2021/12/27 09:12:16;;;;;;;36.42;21.77;;;;;;;4.69;100.00;99854.88;5117207;28;20121;-66
2021/12/27 09:14:42;;;;;;;34.92;20.27;;;;;;;4.70;100.00;99848.81;5118591;28;20027;-65
2021/12/27 09:17:07;;;;;;;33.67;19.45;;;;;;;4.59;100.00;99834.22;5118864;28;20024;-65
2021/12/27 09:19:32;;;;;;;36.00;20.38;;;;;;;4.69;100.00;99852.28;5118511;28;20032;-65
2021/12/27 09:21:58;;;;;;;36.83;20.60;;;;;;;4.72;100.00;99859.16;5118788;28;20028;-64
2021/12/27 09:24:24;;;;;;;32.78;19.20;;;;;;;4.71;100.00;99854.84;5118650;28;20031;-64
2021/12/27 09:26:49;;;;;;;35.70;19.48;;;;;;;4.69;100.00;99846.22;5118926;28;20043;-63
2021/12/27 09:29:15;;;;;;;34.83;19.83;;;;;;;4.81;100.00;99856.53;5118504;28;20023;-66
2021/12/27 09:31:41;;;;;;;34.53;19.67;;;;;;;4.90;100.00;99856.47;5118098;28;20456;-64
2021/12/27 09:34:06;;;;;;;32.53;19.63;;;;;;;4.99;100.00;99850.38;5119271;28;20067;-63
2021/12/27 09:36:31;;;;;;;29.95;18.98;;;;;;;5.02;100.00;99843.41;5118481;28;20038;-65
2021/12/27 09:38:57;;;;;;;32.75;18.58;;;;;;;4.99;100.00;99834.84;5118540;28;20032;-62
2021/12/27 09:41:24;;;;;;;30.10;17.50;;;;;;;5.04;100.00;99852.06;5118273;28;20038;-65
2021/12/27 09:43:49;;;;;;;30.15;18.23;;;;;;;4.96;100.00;99835.72;5118123;28;20038;-63
2021/12/27 09:46:15;;;;;;;27.20;16.88;;;;;;;4.97;100.00;99837.44;5118451;28;20031;-63
2021/12/27 09:48:40;;;;;;;32.47;17.73;;;;;;;5.01;100.00;99846.06;5118267;28;20028;-65
2021/12/27 09:51:07;;;;;;;27.33;16.73;;;;;;;5.06;100.00;99836.50;5118023;28;20031;-63
2021/12/27 09:53:32;;;;;;;29.17;17.05;;;;;;;5.18;100.00;99832.09;5118011;28;20024;-63
2021/12/27 09:55:59;;;;;;;27.30;16.30;;;;;;;5.31;100.00;99835.44;5118268;28;20038;-67
2021/12/27 09:58:24;;;;;;;23.55;15.90;;;;;;;5.41;100.00;99834.47;5118255;28;20331;-63
2021/12/27 10:00:50;;;;;;;24.88;15.90;;;;;;;5.46;100.00;99837.91;5118230;28;20031;-64
2021/12/27 10:03:15;;;;;;;23.95;15.45;;;;;;;5.52;100.00;99837.00;5117915;28;20036;-62
2021/12/27 10:05:41;;;;;;;22.17;14.80;;;;;;;5.57;100.00;99824.81;5117943;28;20050;-64
2021/12/27 10:08:06;;;;;;;24.67;15.60;;;;;;;5.60;100.00;99804.88;5117654;28;20123;-64
2021/12/27 10:10:33;;;;;;;24.63;14.70;;;;;;;5.63;100.00;99795.34;5117954;28;20027;-63
2021/12/27 10:12:59;;;;;;;20.70;14.23;;;;;;;5.55;100.00;99785.91;5117844;28;20127;-63
2021/12/27 10:15:38;;;;;;;20.55;14.13;;;;;;;5.45;100.00;99794.66;5117393;28;20522;-63
2021/12/27 10:18:17;;;;;;;23.58;15.13;;;;;;;5.38;100.00;99800.78;5117481;28;20039;-62
2021/12/27 10:20:44;;;;;;;27.20;15.80;;;;;;;5.37;100.00;99800.81;5117613;28;20351;-64
2021/12/27 10:23:10;;;;;;;23.83;14.90;;;;;;;5.41;100.00;99799.88;5117427;28;20032;-65
2021/12/27 10:25:35;;;;;;;26.10;15.75;;;;;;;5.49;100.00;99803.28;5117467;28;20347;-65
2021/12/27 10:28:03;;;;;;;21.27;14.40;;;;;;;5.59;100.00;99804.91;5117388;28;20031;-66
2021/12/27 10:30:34;;;;;;;23.92;15.30;;;;;;;5.64;100.00;99802.28;5117303;28;20032;-64
2021/12/27 10:33:22;;;;;;;22.70;15.90;;;;;;;5.75;100.00;99801.28;5117021;28;20411;-64
2021/12/27 10:35:55;;;;;;;21.05;13.40;;;;;;;5.91;100.00;99797.66;5117651;28;20027;-65
2021/12/27 10:38:25;;;;;;;21.17;13.15;;;;;;;5.93;100.00;99801.09;5117242;28;20074;-66
2021/12/27 10:40:54;;;;;;;22.83;14.43;;;;;;;6.01;100.00;99792.38;5117479;28;20115;-64
2021/12/27 10:43:38;;;;;;;21.23;13.88;;;;;;;6.03;100.00;99785.44;5116909;28;20497;-66
2021/12/27 10:46:05;;;;;;;21.95;12.88;;;;;;;6.06;100.00;99786.22;5117017;28;20027;-65
2021/12/27 10:48:49;;;;;;;22.38;13.82;;;;;;;6.16;100.00;99782.66;5117024;28;20035;-65
2021/12/27 10:51:15;;;;;;;18.20;12.15;;;;;;;6.31;100.00;99779.00;5117161;28;20054;-64
2021/12/27 10:53:47;;;;;;;19.27;12.70;;;;;;;6.45;100.00;99773.59;5116869;28;20052;-65
2021/12/27 10:56:12;;;;;;;;;;;;;;;6.52;100.00;99778.72;5117231;28;20350;-65
2021/12/27 10:58:45;;;;;;;17.60;12.20;;;;;;;6.45;100.00;99771.88;5116819;28;19986;-66
2021/12/27 11:01:18;;;;;;;18.00;12.00;;;;;;;6.42;100.00;99787.50;5117356;28;20047;-64
2021/12/27 11:03:45;;;;;;;18.15;12.27;;;;;;;6.43;100.00;99778.81;5116809;28;20385;-64
2021/12/27 11:06:13;;;;;;;17.35;11.60;;;;;;;6.52;100.00;99778.72;5116886;28;20334;-65
2021/12/27 11:08:45;;;;;;;17.80;11.70;;;;;;;6.57;100.00;99789.06;5116582;28;20117;-66
2021/12/27 11:11:11;;;;;;;19.23;12.07;;;;;;;6.67;100.00;99787.16;5116500;28;20031;-65